createdAt,value
2023-07-25T00:01:44.603Z,3.00
2023-07-25T00:06:46.236Z,2.63
2023-07-25T00:11:49.185Z,3.05
2023-07-25T00:16:50.920Z,3.50
2023-07-25T00:21:52.820Z,2.70
2023-07-25T00:26:55.824Z,3.10
2023-07-25T00:31:57.432Z,3.08
2023-07-25T00:36:59.101Z,3.35
2023-07-25T00:42:01.935Z,3.25
2023-07-25T00:47:03.684Z,3.75
2023-07-25T00:52:06.052Z,2.92
2023-07-25T00:57:09.146Z,4.28
2023-07-25T01:02:13.448Z,4.53
2023-07-25T01:07:15.522Z,4.75
2023-07-25T01:12:18.484Z,5.00
2023-07-25T01:17:23.944Z,4.93
2023-07-25T01:22:27.013Z,4.93
2023-07-25T01:27:30.049Z,5.25
2023-07-25T01:32:31.765Z,4.95
2023-07-25T01:37:33.348Z,4.25
2023-07-25T01:42:36.208Z,5.25
2023-07-25T01:47:37.725Z,6.63
2023-07-25T01:52:39.416Z,6.78
2023-07-25T01:57:42.250Z,7.03
2023-07-25T02:02:43.952Z,7.40
2023-07-25T02:07:45.569Z,8.13
2023-07-25T02:12:48.576Z,8.73
2023-07-25T02:17:50.236Z,8.68
2023-07-25T02:22:52.186Z,8.13
2023-07-25T02:27:55.104Z,8.80
2023-07-25T02:32:56.708Z,8.38
2023-07-25T02:37:58.340Z,8.30
2023-07-25T02:43:03.414Z,14.15
2023-07-25T02:48:05.512Z,16.00
2023-07-25T02:53:07.125Z,16.80
2023-07-25T02:58:09.944Z,14.20
2023-07-25T03:03:11.505Z,17.23
2023-07-25T03:08:13.080Z,15.60
2023-07-25T03:13:16.258Z,12.25
2023-07-25T03:18:17.879Z,13.00
2023-07-25T03:23:19.467Z,13.13
2023-07-25T03:28:22.434Z,12.98
2023-07-25T03:33:24.138Z,12.98
2023-07-25T03:38:25.690Z,15.25
2023-07-25T03:43:28.598Z,20.42
2023-07-25T03:48:30.196Z,18.63
2023-07-25T03:53:33.570Z,15.52
2023-07-25T03:58:36.479Z,13.02
2023-07-25T04:03:38.201Z,13.50
2023-07-25T04:08:40.002Z,16.60
2023-07-25T04:13:43.000Z,13.23
2023-07-25T04:18:45.360Z,16.08
2023-07-25T04:23:47.231Z,11.65
2023-07-25T04:28:50.214Z,8.63
2023-07-25T04:33:51.858Z,8.68
2023-07-25T04:38:53.533Z,8.25
2023-07-25T04:43:56.519Z,7.53
2023-07-25T04:48:58.139Z,17.92
2023-07-25T04:53:59.836Z,7.03
2023-07-25T04:59:02.776Z,7.60
2023-07-25T05:04:04.667Z,7.35
2023-07-25T05:09:06.374Z,12.70
2023-07-25T05:14:09.380Z,6.53
2023-07-25T05:19:10.988Z,6.60
2023-07-25T05:24:12.574Z,7.68
2023-07-25T05:29:15.524Z,7.70
2023-07-25T05:34:17.139Z,7.82
2023-07-25T05:39:18.730Z,8.05
2023-07-25T05:44:21.758Z,8.52
2023-07-25T05:49:23.414Z,8.52
2023-07-25T05:54:24.979Z,6.78
2023-07-25T05:59:27.861Z,6.63
2023-07-25T06:04:30.607Z,6.82
2023-07-25T06:09:32.276Z,7.50
2023-07-25T06:14:35.254Z,7.63
2023-07-25T06:19:36.820Z,8.07
2023-07-25T06:24:38.605Z,6.60
2023-07-25T06:29:41.669Z,2.45
2023-07-25T06:34:43.273Z,2.05
2023-07-25T06:39:44.905Z,1.90
2023-07-25T06:44:48.817Z,1.83
2023-07-25T06:49:50.501Z,1.85
2023-07-25T06:54:53.161Z,1.40
2023-07-25T06:59:56.091Z,2.30
2023-07-25T07:04:57.851Z,2.00
2023-07-25T07:09:59.410Z,1.70
2023-07-25T07:15:02.749Z,1.60
2023-07-25T07:20:07.245Z,1.25
2023-07-25T07:25:19.850Z,1.50
2023-07-25T07:30:22.778Z,1.83
2023-07-25T07:35:24.546Z,1.70
2023-07-25T07:40:26.212Z,1.50
2023-07-25T07:45:29.167Z,2.10
2023-07-25T07:50:30.792Z,2.30
2023-07-25T07:55:32.432Z,2.10
2023-07-25T08:00:35.412Z,2.20
2023-07-25T08:05:36.939Z,2.05
2023-07-25T08:10:38.560Z,3.10
2023-07-25T08:15:42.556Z,3.55
2023-07-25T08:20:44.220Z,3.33
2023-07-25T08:25:45.748Z,3.10
2023-07-25T08:30:48.715Z,3.58
2023-07-25T08:35:50.382Z,3.60
2023-07-25T08:40:56.384Z,4.22
2023-07-25T08:46:02.013Z,4.55
2023-07-25T08:51:06.906Z,3.65
2023-07-25T08:56:08.905Z,1.70
2023-07-25T09:01:12.941Z,2.15
2023-07-25T09:06:14.794Z,2.00
2023-07-25T09:11:19.390Z,2.60
2023-07-25T09:16:22.413Z,2.30
2023-07-25T09:21:24.029Z,2.10
2023-07-25T09:26:27.290Z,2.00
2023-07-25T09:31:30.321Z,2.30
2023-07-25T09:36:32.135Z,2.13
2023-07-25T09:41:36.399Z,2.30
2023-07-25T09:46:39.650Z,2.33
2023-07-25T09:51:57.567Z,1.98
2023-07-25T09:56:59.411Z,1.80
2023-07-25T10:02:03.038Z,1.83
2023-07-25T10:07:06.891Z,1.40
2023-07-25T10:12:09.682Z,1.15
2023-07-25T10:17:12.674Z,1.50
2023-07-25T10:22:14.351Z,1.60
2023-07-25T10:27:16.068Z,1.30
2023-07-25T10:32:45.942Z,1.50
2023-07-25T10:37:47.563Z,1.70
2023-07-25T10:47:59.741Z,1.70
2023-07-25T10:53:14.766Z,1.30
2023-07-25T10:58:17.006Z,1.67
2023-07-25T11:03:29.215Z,1.55
2023-07-25T11:08:30.919Z,1.73
2023-07-25T11:13:33.818Z,1.42
2023-07-25T11:18:38.065Z,1.40
2023-07-25T11:23:39.698Z,1.20
2023-07-25T11:28:41.301Z,1.10
2023-07-25T11:33:44.297Z,1.67
2023-07-25T11:38:45.837Z,1.50
2023-07-25T11:43:47.404Z,1.20
2023-07-25T11:48:50.419Z,1.38
2023-07-25T11:53:52.882Z,1.63
2023-07-25T11:58:55.475Z,1.13
2023-07-25T12:03:59.252Z,0.95
2023-07-25T12:09:02.006Z,0.77
2023-07-25T12:14:03.634Z,1.30
2023-07-25T12:19:09.558Z,1.73
2023-07-25T12:24:12.708Z,1.17
2023-07-25T12:29:15.267Z,0.95
2023-07-25T12:34:18.172Z,1.10
2023-07-25T12:39:19.707Z,1.20
2023-07-25T12:44:21.276Z,1.08
2023-07-25T12:49:24.472Z,1.30
2023-07-25T12:54:26.054Z,1.30
2023-07-25T12:59:27.661Z,1.08
2023-07-25T13:04:30.762Z,1.27
2023-07-25T13:09:32.414Z,1.15
2023-07-25T13:14:34.049Z,0.95
2023-07-25T13:19:37.025Z,1.10
2023-07-25T13:24:38.764Z,1.02
2023-07-25T13:29:40.372Z,0.80
2023-07-25T13:34:44.413Z,1.00
2023-07-25T13:39:45.955Z,1.13
2023-07-25T13:44:47.562Z,1.23
2023-07-25T13:49:50.448Z,1.05
2023-07-25T13:54:52.018Z,1.00
2023-07-25T13:59:53.500Z,1.00
2023-07-25T14:04:56.447Z,1.08
2023-07-25T14:09:58.089Z,0.80
2023-07-25T14:15:01.201Z,0.90
2023-07-25T14:20:07.023Z,0.90
2023-07-25T14:25:09.158Z,1.10
2023-07-25T14:30:11.072Z,1.13
2023-07-25T14:35:14.038Z,1.00
2023-07-25T14:40:15.809Z,0.90
2023-07-25T14:45:17.418Z,0.85
2023-07-25T14:50:20.275Z,0.90
2023-07-25T14:55:22.421Z,1.00
2023-07-25T15:00:24.092Z,0.90
2023-07-25T15:05:27.155Z,0.93
2023-07-25T15:10:28.807Z,0.82
2023-07-25T15:15:30.420Z,1.27
2023-07-25T15:20:33.362Z,1.00
2023-07-25T15:25:35.015Z,1.10
2023-07-25T15:30:36.650Z,1.23
2023-07-25T15:35:39.727Z,0.93
2023-07-25T15:40:41.475Z,0.90
2023-07-25T15:45:43.209Z,1.08
2023-07-25T15:50:46.233Z,0.85
2023-07-25T15:55:47.813Z,1.20
2023-07-25T16:00:49.534Z,1.00
2023-07-25T16:05:52.601Z,1.15
2023-07-25T16:10:54.180Z,1.10
2023-07-25T16:15:55.948Z,1.10
2023-07-25T16:20:58.904Z,1.00
2023-07-25T16:26:03.190Z,1.42
2023-07-25T16:31:22.770Z,0.90
2023-07-25T16:36:29.170Z,0.85
2023-07-25T16:41:31.109Z,1.10
2023-07-25T16:46:33.261Z,1.15
2023-07-25T16:51:36.284Z,1.00
2023-07-25T16:56:37.826Z,1.15
2023-07-25T17:01:39.425Z,1.10
2023-07-25T17:06:42.742Z,0.60
2023-07-25T17:11:44.322Z,0.70
2023-07-25T17:16:45.880Z,0.77
2023-07-25T17:21:49.146Z,0.60
2023-07-25T17:26:51.008Z,0.90
2023-07-25T17:31:52.647Z,0.73
2023-07-25T17:36:55.601Z,0.63
2023-07-25T17:41:57.260Z,0.65
2023-07-25T17:46:58.834Z,1.00
2023-07-25T17:52:01.769Z,0.50
2023-07-25T17:57:03.836Z,0.55
2023-07-25T18:02:06.962Z,0.60
2023-07-25T18:07:09.941Z,0.70
2023-07-25T18:12:11.989Z,0.70
2023-07-25T18:17:14.987Z,0.65
2023-07-25T18:22:17.950Z,0.60
2023-07-25T18:27:19.581Z,0.70
2023-07-25T18:32:21.265Z,0.60
2023-07-25T18:37:24.212Z,0.68
2023-07-25T18:42:25.899Z,0.68
2023-07-25T18:47:34.370Z,0.60
2023-07-25T18:52:37.889Z,0.85
2023-07-25T18:57:39.591Z,0.80
2023-07-25T19:02:41.323Z,0.90
2023-07-25T19:07:44.470Z,0.77
2023-07-25T19:12:46.065Z,0.85
2023-07-25T19:17:47.708Z,1.30
2023-07-25T19:22:50.640Z,1.85
2023-07-25T19:27:52.288Z,2.33
2023-07-25T19:32:53.991Z,2.05
2023-07-25T19:37:57.070Z,2.28
2023-07-25T19:42:58.687Z,2.40
2023-07-25T19:48:00.293Z,2.83
2023-07-25T19:53:07.609Z,2.78
2023-07-25T19:58:09.159Z,2.70
2023-07-25T20:03:11.847Z,2.92
2023-07-25T20:08:14.910Z,2.40
2023-07-25T20:13:17.100Z,2.78
2023-07-25T20:18:19.816Z,2.90
2023-07-25T20:23:23.861Z,3.40
2023-07-25T20:28:25.528Z,2.90
2023-07-25T20:33:27.266Z,2.30
2023-07-25T20:38:33.078Z,3.17
2023-07-25T20:43:34.758Z,3.55
2023-07-25T20:48:36.423Z,3.45
2023-07-25T20:53:39.472Z,3.75
2023-07-25T20:58:41.080Z,3.60
2023-07-25T21:03:43.774Z,3.40
2023-07-25T21:08:47.241Z,3.92
2023-07-25T21:13:48.961Z,5.18
2023-07-25T21:18:50.630Z,4.93
2023-07-25T21:23:53.562Z,5.50
2023-07-25T21:28:55.260Z,5.68
2023-07-25T21:33:56.897Z,5.97
2023-07-25T21:38:59.998Z,6.57
2023-07-25T21:44:01.684Z,6.40
2023-07-25T21:49:03.243Z,6.10
2023-07-25T21:54:06.137Z,5.50
2023-07-25T21:59:07.675Z,6.00
2023-07-25T22:04:11.319Z,6.18
2023-07-25T22:09:14.281Z,7.00
2023-07-25T22:14:15.922Z,6.95
2023-07-25T22:19:17.617Z,6.53
2023-07-25T22:24:20.695Z,7.20
2023-07-25T22:29:22.413Z,7.07
2023-07-25T22:34:24.106Z,7.22
2023-07-25T22:39:26.972Z,7.65
2023-07-25T22:44:28.623Z,7.93
2023-07-25T22:49:30.184Z,8.50
2023-07-25T22:54:33.091Z,9.45
2023-07-25T22:59:35.008Z,9.77
2023-07-25T23:04:36.683Z,9.52
2023-07-25T23:09:39.759Z,10.90
2023-07-25T23:14:41.310Z,11.75
2023-07-25T23:19:43.056Z,12.35
2023-07-25T23:24:46.062Z,13.10
2023-07-25T23:29:47.730Z,15.15
2023-07-25T23:34:51.172Z,16.83
2023-07-25T23:39:54.505Z,18.92
2023-07-25T23:44:56.030Z,17.92
2023-07-25T23:49:57.635Z,17.63
2023-07-25T23:55:01.105Z,19.50
